PWSweather.com
Personal Weather Stations
Station Observations
NAGEO265NE
Bedzin GrodziecPL 42-506

Bedzin GrodziecPL 42-506

Lat: 50.347, Lon: 19.079

Elevation: 948

Station Type: WH1080

http://www.meteo-grodziec.pl/

High Low Average
Temperature 81.5°F27.5°C 62.1°F16.7°C 68.5°F20.3°C
Dew Point 66.6°F19.2°C 55.8°F13.2°C 61.5°F16.4°C
Winds 7.0 mph 11.3 kmh Calm Calm 3.0 mph E4.8 kmh E
Wind Gusts 16.0 mph25.7 kmh -- 7.0 mph11.3 kmh
Humidity 96% 53% 80%
Pressure 29.75 in1007.5 mb 29.61 in1002.7 mb -
Precipitation 0.54 in13.7 mm - -
Hour Temp Dew Point Humidity Winds Wind Gusts Pressure Precip Precip Rate Daily Precip Total
12:00 AM 66.2°F19.0°C 56.1°F13.4°C 70% 3.0 mph NE4.8 kmh NE 8.0 mph12.9 kmh 29.75 in1007.5 mb 0.00 in0.0 mm 0.00 in0.0 mm 0.00 in0.0 mm
12:05 AM 66.0°F18.9°C 56.3°F13.5°C 71% 4.0 mph NE6.4 kmh NE 10.0 mph16.1 kmh 29.75 in1007.5 mb 0.00 in0.0 mm 0.00 in0.0 mm 0.00 in0.0 mm
12:10 AM 65.8°F18.8°C 56.3°F13.5°C 71% 5.0 mph NE8.0 kmh NE 10.0 mph16.1 kmh 29.75 in1007.5 mb 0.00 in0.0 mm 0.00 in0.0 mm 0.00 in0.0 mm
12:15 AM 65.8°F18.8°C 56.3°F13.5°C 71% 6.0 mph NE9.7 kmh NE 11.0 mph17.7 kmh 29.74 in1007.1 mb 0.00 in0.0 mm 0.00 in0.0 mm 0.00 in0.0 mm
12:20 AM 65.8°F18.8°C 56.3°F13.5°C 71% 5.0 mph NE8.0 kmh NE 11.0 mph17.7 kmh 29.74 in1007.1 mb 0.00 in0.0 mm 0.00 in0.0 mm 0.00 in0.0 mm
12:25 AM 65.8°F18.8°C 56.1°F13.4°C 71% 5.0 mph NE8.0 kmh NE 9.0 mph14.5 kmh 29.74 in1007.1 mb 0.00 in0.0 mm 0.00 in0.0 mm 0.00 in0.0 mm
12:30 AM 65.7°F18.7°C 56.1°F13.4°C 71% 5.0 mph NE8.0 kmh NE 9.0 mph14.5 kmh 29.74 in1007.1 mb 0.00 in0.0 mm 0.00 in0.0 mm 0.00 in0.0 mm
12:35 AM 65.7°F18.7°C 55.9°F13.3°C 71% 5.0 mph NE8.0 kmh NE 9.0 mph14.5 kmh 29.73 in1006.8 mb 0.00 in0.0 mm 0.00 in0.0 mm 0.00 in0.0 mm
12:40 AM 65.5°F18.6°C 56.1°F13.4°C 72% 5.0 mph NE8.0 kmh NE 10.0 mph16.1 kmh 29.73 in1006.8 mb 0.00 in0.0 mm 0.00 in0.0 mm 0.00 in0.0 mm
12:45 AM 65.1°F18.4°C 55.9°F13.3°C 72% 5.0 mph NE8.0 kmh NE 10.0 mph16.1 kmh 29.73 in1006.8 mb 0.00 in0.0 mm 0.00 in0.0 mm 0.00 in0.0 mm
12:50 AM 65.1°F18.4°C 55.8°F13.2°C 72% 5.0 mph NE8.0 kmh NE 10.0 mph16.1 kmh 29.73 in1006.8 mb 0.00 in0.0 mm 0.00 in0.0 mm 0.00 in0.0 mm
12:55 AM 64.9°F18.3°C 56.1°F13.4°C 73% 5.0 mph NE8.0 kmh NE 9.0 mph14.5 kmh 29.73 in1006.8 mb 0.00 in0.0 mm 0.00 in0.0 mm 0.00 in0.0 mm
01:00 AM 64.9°F18.3°C 56.1°F13.4°C 73% 6.0 mph NE9.7 kmh NE 11.0 mph17.7 kmh 29.73 in1006.8 mb 0.00 in0.0 mm 0.00 in0.0 mm 0.00 in0.0 mm
01:05 AM 64.8°F18.2°C 55.9°F13.3°C 73% 6.0 mph NE9.7 kmh NE 14.0 mph22.5 kmh 29.72 in1006.4 mb 0.00 in0.0 mm 0.00 in0.0 mm 0.00 in0.0 mm
01:10 AM 64.9°F18.3°C 56.1°F13.4°C 73% 6.0 mph NE9.7 kmh NE 14.0 mph22.5 kmh 29.73 in1006.8 mb 0.00 in0.0 mm 0.00 in0.0 mm 0.00 in0.0 mm
01:15 AM 64.9°F18.3°C 56.1°F13.4°C 73% 6.0 mph NE9.7 kmh NE 10.0 mph16.1 kmh 29.72 in1006.4 mb 0.00 in0.0 mm 0.00 in0.0 mm 0.00 in0.0 mm
01:20 AM 64.9°F18.3°C 56.1°F13.4°C 73% 6.0 mph NE9.7 kmh NE 10.0 mph16.1 kmh 29.72 in1006.4 mb 0.00 in0.0 mm 0.00 in0.0 mm 0.00 in0.0 mm
01:25 AM 64.8°F18.2°C 55.9°F13.3°C 73% 6.0 mph NE9.7 kmh NE 11.0 mph17.7 kmh 29.72 in1006.4 mb 0.00 in0.0 mm 0.00 in0.0 mm 0.00 in0.0 mm
01:30 AM 64.8°F18.2°C 56.3°F13.5°C 74% 6.0 mph NE9.7 kmh NE 11.0 mph17.7 kmh 29.72 in1006.4 mb 0.00 in0.0 mm 0.00 in0.0 mm 0.00 in0.0 mm
01:35 AM 64.6°F18.1°C 55.9°F13.3°C 74% 6.0 mph NE9.7 kmh NE 11.0 mph17.7 kmh 29.71 in1006.1 mb 0.00 in0.0 mm 0.00 in0.0 mm 0.00 in0.0 mm
01:40 AM 64.4°F18.0°C 55.9°F13.3°C 74% 6.0 mph NE9.7 kmh NE 11.0 mph17.7 kmh 29.72 in1006.4 mb 0.00 in0.0 mm 0.00 in0.0 mm 0.00 in0.0 mm
01:45 AM 64.2°F17.9°C 56.1°F13.4°C 75% 6.0 mph NE9.7 kmh NE 11.0 mph17.7 kmh 29.72 in1006.4 mb 0.00 in0.0 mm 0.00 in0.0 mm 0.00 in0.0 mm
01:50 AM 64.0°F17.8°C 55.9°F13.3°C 75% 6.0 mph NE9.7 kmh NE 11.0 mph17.7 kmh 29.71 in1006.1 mb 0.00 in0.0 mm 0.00 in0.0 mm 0.00 in0.0 mm
01:55 AM 64.0°F17.8°C 55.9°F13.3°C 75% 6.0 mph NE9.7 kmh NE 11.0 mph17.7 kmh 29.71 in1006.1 mb 0.00 in0.0 mm 0.00 in0.0 mm 0.00 in0.0 mm
02:00 AM 63.9°F17.7°C 55.8°F13.2°C 75% 6.0 mph NE9.7 kmh NE 11.0 mph17.7 kmh 29.71 in1006.1 mb 0.00 in0.0 mm 0.00 in0.0 mm 0.00 in0.0 mm
02:05 AM 63.7°F17.6°C 55.9°F13.3°C 76% 6.0 mph NE9.7 kmh NE 11.0 mph17.7 kmh 29.71 in1006.1 mb 0.00 in0.0 mm 0.00 in0.0 mm 0.00 in0.0 mm
02:10 AM 63.7°F17.6°C 55.9°F13.3°C 76% 6.0 mph NE9.7 kmh NE 11.0 mph17.7 kmh 29.71 in1006.1 mb 0.00 in0.0 mm 0.00 in0.0 mm 0.00 in0.0 mm
02:15 AM 63.5°F17.5°C 55.8°F13.2°C 76% 6.0 mph NE9.7 kmh NE 9.0 mph14.5 kmh 29.71 in1006.1 mb 0.00 in0.0 mm 0.00 in0.0 mm 0.00 in0.0 mm
02:20 AM 63.5°F17.5°C 55.8°F13.2°C 76% 5.0 mph NE8.0 kmh NE 11.0 mph17.7 kmh 29.71 in1006.1 mb 0.00 in0.0 mm 0.00 in0.0 mm 0.00 in0.0 mm
02:25 AM 63.5°F17.5°C 56.1°F13.4°C 77% 5.0 mph NE8.0 kmh NE 11.0 mph17.7 kmh 29.71 in1006.1 mb 0.00 in0.0 mm 0.00 in0.0 mm 0.00 in0.0 mm
02:30 AM 63.3°F17.4°C 56.1°F13.4°C 77% 4.0 mph ENE6.4 kmh ENE 9.0 mph14.5 kmh 29.71 in1006.1 mb 0.00 in0.0 mm 0.00 in0.0 mm 0.00 in0.0 mm
02:35 AM 63.3°F17.4°C 55.9°F13.3°C 77% 3.0 mph ENE4.8 kmh ENE 8.0 mph12.9 kmh 29.71 in1006.1 mb 0.00 in0.0 mm 0.00 in0.0 mm 0.00 in0.0 mm
02:40 AM 63.1°F17.3°C 55.8°F13.2°C 77% 2.0 mph ENE3.2 kmh ENE 6.0 mph9.7 kmh 29.71 in1006.1 mb 0.00 in0.0 mm 0.00 in0.0 mm 0.00 in0.0 mm
02:45 AM 63.0°F17.2°C 55.8°F13.2°C 77% 2.0 mph ENE3.2 kmh ENE 7.0 mph11.3 kmh 29.71 in1006.1 mb 0.00 in0.0 mm 0.00 in0.0 mm 0.00 in0.0 mm
02:50 AM 63.0°F17.2°C 55.9°F13.3°C 78% 3.0 mph NE4.8 kmh NE 8.0 mph12.9 kmh 29.71 in1006.1 mb 0.00 in0.0 mm 0.00 in0.0 mm 0.00 in0.0 mm
02:55 AM 62.8°F17.1°C 55.8°F13.2°C 78% 3.0 mph NE4.8 kmh NE 8.0 mph12.9 kmh 29.70 in1005.8 mb 0.00 in0.0 mm 0.00 in0.0 mm 0.00 in0.0 mm
03:00 AM 62.8°F17.1°C 55.8°F13.2°C 78% 4.0 mph NE6.4 kmh NE 10.0 mph16.1 kmh 29.70 in1005.8 mb 0.00 in0.0 mm 0.00 in0.0 mm 0.00 in0.0 mm
03:05 AM 62.8°F17.1°C 55.8°F13.2°C 78% 4.0 mph NE6.4 kmh NE 10.0 mph16.1 kmh 29.70 in1005.8 mb 0.00 in0.0 mm 0.00 in0.0 mm 0.00 in0.0 mm
03:10 AM 62.8°F17.1°C 55.8°F13.2°C 78% 5.0 mph NE8.0 kmh NE 10.0 mph16.1 kmh 29.70 in1005.8 mb 0.00 in0.0 mm 0.00 in0.0 mm 0.00 in0.0 mm
03:15 AM 62.8°F17.1°C 55.8°F13.2°C 78% 5.0 mph NE8.0 kmh NE 10.0 mph16.1 kmh 29.70 in1005.8 mb 0.00 in0.0 mm 0.00 in0.0 mm 0.00 in0.0 mm
03:20 AM 62.8°F17.1°C 55.8°F13.2°C 78% 4.0 mph NE6.4 kmh NE 10.0 mph16.1 kmh 29.70 in1005.8 mb 0.00 in0.0 mm 0.00 in0.0 mm 0.00 in0.0 mm
03:25 AM 62.8°F17.1°C 56.1°F13.4°C 79% 4.0 mph NE6.4 kmh NE 10.0 mph16.1 kmh 29.70 in1005.8 mb 0.00 in0.0 mm 0.00 in0.0 mm 0.00 in0.0 mm
03:30 AM 62.6°F17.0°C 55.9°F13.3°C 79% 2.0 mph NE3.2 kmh NE 8.0 mph12.9 kmh 29.70 in1005.8 mb 0.00 in0.0 mm 0.00 in0.0 mm 0.00 in0.0 mm
03:35 AM 62.4°F16.9°C 55.9°F13.3°C 79% 1.0 mph NE1.6 kmh NE 4.0 mph6.4 kmh 29.71 in1006.1 mb 0.00 in0.0 mm 0.00 in0.0 mm 0.00 in0.0 mm
03:40 AM 62.2°F16.8°C 56.1°F13.4°C 80% Calm Calm 4.0 mph6.4 kmh 29.71 in1006.1 mb 0.00 in0.0 mm 0.00 in0.0 mm 0.00 in0.0 mm
03:45 AM 62.1°F16.7°C 55.9°F13.3°C 80% Calm Calm 4.0 mph6.4 kmh 29.71 in1006.1 mb 0.00 in0.0 mm 0.00 in0.0 mm 0.00 in0.0 mm
03:50 AM 62.1°F16.7°C 56.1°F13.4°C 81% 1.0 mph NE1.6 kmh NE 5.0 mph8.0 kmh 29.70 in1005.8 mb 0.00 in0.0 mm 0.00 in0.0 mm 0.00 in0.0 mm
03:55 AM 62.1°F16.7°C 56.1°F13.4°C 81% 2.0 mph NE3.2 kmh NE 9.0 mph14.5 kmh 29.70 in1005.8 mb 0.00 in0.0 mm 0.00 in0.0 mm 0.00 in0.0 mm
04:00 AM 62.1°F16.7°C 56.1°F13.4°C 81% 3.0 mph ENE4.8 kmh ENE 9.0 mph14.5 kmh 29.70 in1005.8 mb 0.00 in0.0 mm 0.00 in0.0 mm 0.00 in0.0 mm
04:05 AM 62.2°F16.8°C 56.3°F13.5°C 81% 3.0 mph NE4.8 kmh NE 8.0 mph12.9 kmh 29.70 in1005.8 mb 0.00 in0.0 mm 0.00 in0.0 mm 0.00 in0.0 mm
04:10 AM 62.2°F16.8°C 56.3°F13.5°C 81% 3.0 mph NE4.8 kmh NE 8.0 mph12.9 kmh 29.70 in1005.8 mb 0.00 in0.0 mm 0.00 in0.0 mm 0.00 in0.0 mm
04:15 AM 62.2°F16.8°C 56.3°F13.5°C 81% 3.0 mph NE4.8 kmh NE 7.0 mph11.3 kmh 29.70 in1005.8 mb 0.00 in0.0 mm 0.00 in0.0 mm 0.00 in0.0 mm
04:20 AM 62.1°F16.7°C 56.1°F13.4°C 81% 3.0 mph NE4.8 kmh NE 6.0 mph9.7 kmh 29.70 in1005.8 mb 0.00 in0.0 mm 0.00 in0.0 mm 0.00 in0.0 mm
04:25 AM 62.1°F16.7°C 56.1°F13.4°C 81% 2.0 mph NE3.2 kmh NE 6.0 mph9.7 kmh 29.70 in1005.8 mb 0.00 in0.0 mm 0.00 in0.0 mm 0.00 in0.0 mm
04:30 AM 62.2°F16.8°C 56.3°F13.5°C 81% 2.0 mph ENE3.2 kmh ENE 6.0 mph9.7 kmh 29.70 in1005.8 mb 0.00 in0.0 mm 0.00 in0.0 mm 0.00 in0.0 mm
04:35 AM 62.1°F16.7°C 56.1°F13.4°C 81% 2.0 mph ENE3.2 kmh ENE 5.0 mph8.0 kmh 29.70 in1005.8 mb 0.00 in0.0 mm 0.00 in0.0 mm 0.00 in0.0 mm
04:40 AM 62.2°F16.8°C 56.3°F13.5°C 81% 2.0 mph ENE3.2 kmh ENE 5.0 mph8.0 kmh 29.70 in1005.8 mb 0.00 in0.0 mm 0.00 in0.0 mm 0.00 in0.0 mm
04:45 AM 62.1°F16.7°C 56.1°F13.4°C 81% 3.0 mph ENE4.8 kmh ENE 5.0 mph8.0 kmh 29.70 in1005.8 mb 0.00 in0.0 mm 0.00 in0.0 mm 0.00 in0.0 mm
04:50 AM 62.1°F16.7°C 56.1°F13.4°C 81% 2.0 mph ENE3.2 kmh ENE 6.0 mph9.7 kmh 29.70 in1005.8 mb 0.00 in0.0 mm 0.00 in0.0 mm 0.00 in0.0 mm
04:55 AM 62.1°F16.7°C 56.1°F13.4°C 81% 1.0 mph ENE1.6 kmh ENE 6.0 mph9.7 kmh 29.70 in1005.8 mb 0.00 in0.0 mm 0.00 in0.0 mm 0.00 in0.0 mm
05:00 AM 62.1°F16.7°C 56.1°F13.4°C 81% 1.0 mph NE1.6 kmh NE 4.0 mph6.4 kmh 29.70 in1005.8 mb 0.00 in0.0 mm 0.00 in0.0 mm 0.00 in0.0 mm
05:05 AM 62.2°F16.8°C 56.7°F13.7°C 82% 1.0 mph NE1.6 kmh NE 4.0 mph6.4 kmh 29.70 in1005.8 mb 0.00 in0.0 mm 0.00 in0.0 mm 0.00 in0.0 mm
05:10 AM 62.4°F16.9°C 56.7°F13.7°C 81% 1.0 mph NE1.6 kmh NE 5.0 mph8.0 kmh 29.70 in1005.8 mb 0.00 in0.0 mm 0.00 in0.0 mm 0.00 in0.0 mm
05:15 AM 62.8°F17.1°C 56.8°F13.8°C 81% 2.0 mph NE3.2 kmh NE 5.0 mph8.0 kmh 29.70 in1005.8 mb 0.00 in0.0 mm 0.00 in0.0 mm 0.00 in0.0 mm
05:20 AM 63.0°F17.2°C 57.0°F13.9°C 81% 2.0 mph ENE3.2 kmh ENE 5.0 mph8.0 kmh 29.70 in1005.8 mb 0.00 in0.0 mm 0.00 in0.0 mm 0.00 in0.0 mm
05:25 AM 63.3°F17.4°C 57.0°F13.9°C 80% 3.0 mph ENE4.8 kmh ENE 8.0 mph12.9 kmh 29.70 in1005.8 mb 0.00 in0.0 mm 0.00 in0.0 mm 0.00 in0.0 mm
05:30 AM 63.7°F17.6°C 57.4°F14.1°C 80% 5.0 mph ENE8.0 kmh ENE 8.0 mph12.9 kmh 29.69 in1005.4 mb 0.00 in0.0 mm 0.00 in0.0 mm 0.00 in0.0 mm
05:35 AM 64.0°F17.8°C 57.7°F14.3°C 80% 6.0 mph ENE9.7 kmh ENE 12.0 mph19.3 kmh 29.69 in1005.4 mb 0.00 in0.0 mm 0.00 in0.0 mm 0.00 in0.0 mm
05:40 AM 64.0°F17.8°C 57.7°F14.3°C 80% 6.0 mph ENE9.7 kmh ENE 12.0 mph19.3 kmh 29.69 in1005.4 mb 0.00 in0.0 mm 0.00 in0.0 mm 0.00 in0.0 mm
05:45 AM 64.2°F17.9°C 57.9°F14.4°C 80% 5.0 mph ENE8.0 kmh ENE 10.0 mph16.1 kmh 29.70 in1005.8 mb 0.00 in0.0 mm 0.00 in0.0 mm 0.00 in0.0 mm
05:50 AM 64.6°F18.1°C 58.3°F14.6°C 80% 5.0 mph ENE8.0 kmh ENE 10.0 mph16.1 kmh 29.70 in1005.8 mb 0.00 in0.0 mm 0.00 in0.0 mm 0.00 in0.0 mm
05:55 AM 64.9°F18.3°C 58.3°F14.6°C 79% 5.0 mph ENE8.0 kmh ENE 10.0 mph16.1 kmh 29.70 in1005.8 mb 0.00 in0.0 mm 0.00 in0.0 mm 0.00 in0.0 mm
06:00 AM 65.1°F18.4°C 58.5°F14.7°C 79% 5.0 mph ENE8.0 kmh ENE 11.0 mph17.7 kmh 29.70 in1005.8 mb 0.00 in0.0 mm 0.00 in0.0 mm 0.00 in0.0 mm
06:05 AM 65.1°F18.4°C 58.1°F14.5°C 78% 6.0 mph ENE9.7 kmh ENE 11.0 mph17.7 kmh 29.70 in1005.8 mb 0.00 in0.0 mm 0.00 in0.0 mm 0.00 in0.0 mm
06:10 AM 65.5°F18.6°C 58.3°F14.6°C 78% 5.0 mph ENE8.0 kmh ENE 11.0 mph17.7 kmh 29.70 in1005.8 mb 0.00 in0.0 mm 0.00 in0.0 mm 0.00 in0.0 mm
06:15 AM 65.7°F18.7°C 58.6°F14.8°C 78% 5.0 mph ENE8.0 kmh ENE 9.0 mph14.5 kmh 29.70 in1005.8 mb 0.00 in0.0 mm 0.00 in0.0 mm 0.00 in0.0 mm
06:20 AM 66.2°F19.0°C 59.5°F15.3°C 79% 4.0 mph ENE6.4 kmh ENE 9.0 mph14.5 kmh 29.70 in1005.8 mb 0.00 in0.0 mm 0.00 in0.0 mm 0.00 in0.0 mm
06:25 AM 66.7°F19.3°C 59.5°F15.3°C 78% 4.0 mph ENE6.4 kmh ENE 8.0 mph12.9 kmh 29.70 in1005.8 mb 0.00 in0.0 mm 0.00 in0.0 mm 0.00 in0.0 mm
06:30 AM 66.9°F19.4°C 59.9°F15.5°C 78% 4.0 mph ENE6.4 kmh ENE 9.0 mph14.5 kmh 29.70 in1005.8 mb 0.00 in0.0 mm 0.00 in0.0 mm 0.00 in0.0 mm
06:35 AM 67.3°F19.6°C 60.3°F15.7°C 78% 5.0 mph ENE8.0 kmh ENE 9.0 mph14.5 kmh 29.70 in1005.8 mb 0.00 in0.0 mm 0.00 in0.0 mm 0.00 in0.0 mm
06:40 AM 67.5°F19.7°C 60.4°F15.8°C 78% 5.0 mph ENE8.0 kmh ENE 11.0 mph17.7 kmh 29.69 in1005.4 mb 0.00 in0.0 mm 0.00 in0.0 mm 0.00 in0.0 mm
06:45 AM 68.0°F20.0°C 60.8°F16.0°C 78% 5.0 mph ENE8.0 kmh ENE 11.0 mph17.7 kmh 29.69 in1005.4 mb 0.00 in0.0 mm 0.00 in0.0 mm 0.00 in0.0 mm
06:50 AM 68.5°F20.3°C 61.2°F16.2°C 77% 4.0 mph ENE6.4 kmh ENE 9.0 mph14.5 kmh 29.69 in1005.4 mb 0.00 in0.0 mm 0.00 in0.0 mm 0.00 in0.0 mm
06:55 AM 69.3°F20.7°C 61.3°F16.3°C 76% 4.0 mph ENE6.4 kmh ENE 9.0 mph14.5 kmh 29.69 in1005.4 mb 0.00 in0.0 mm 0.00 in0.0 mm 0.00 in0.0 mm
07:00 AM 69.4°F20.8°C 61.5°F16.4°C 76% 4.0 mph ENE6.4 kmh ENE 10.0 mph16.1 kmh 29.69 in1005.4 mb 0.00 in0.0 mm 0.00 in0.0 mm 0.00 in0.0 mm
07:05 AM 70.2°F21.2°C 62.2°F16.8°C 76% 4.0 mph ENE6.4 kmh ENE 10.0 mph16.1 kmh 29.69 in1005.4 mb 0.00 in0.0 mm 0.00 in0.0 mm 0.00 in0.0 mm
07:10 AM 70.3°F21.3°C 62.1°F16.7°C 75% 4.0 mph ENE6.4 kmh ENE 11.0 mph17.7 kmh 29.69 in1005.4 mb 0.00 in0.0 mm 0.00 in0.0 mm 0.00 in0.0 mm
07:15 AM 70.7°F21.5°C 62.4°F16.9°C 75% 5.0 mph ENE8.0 kmh ENE 11.0 mph17.7 kmh 29.70 in1005.8 mb 0.00 in0.0 mm 0.00 in0.0 mm 0.00 in0.0 mm
07:20 AM 71.1°F21.7°C 62.2°F16.8°C 74% 5.0 mph ENE8.0 kmh ENE 9.0 mph14.5 kmh 29.69 in1005.4 mb 0.00 in0.0 mm 0.00 in0.0 mm 0.00 in0.0 mm
07:25 AM 71.2°F21.8°C 62.6°F17.0°C 74% 5.0 mph ENE8.0 kmh ENE 10.0 mph16.1 kmh 29.70 in1005.8 mb 0.00 in0.0 mm 0.00 in0.0 mm 0.00 in0.0 mm
07:30 AM 71.4°F21.9°C 62.2°F16.8°C 73% 5.0 mph ENE8.0 kmh ENE 13.0 mph20.9 kmh 29.70 in1005.8 mb 0.00 in0.0 mm 0.00 in0.0 mm 0.00 in0.0 mm
07:35 AM 71.4°F21.9°C 62.2°F16.8°C 73% 6.0 mph ENE9.7 kmh ENE 13.0 mph20.9 kmh 29.70 in1005.8 mb 0.00 in0.0 mm 0.00 in0.0 mm 0.00 in0.0 mm
07:40 AM 71.8°F22.1°C 62.6°F17.0°C 73% 5.0 mph ENE8.0 kmh ENE 12.0 mph19.3 kmh 29.70 in1005.8 mb 0.00 in0.0 mm 0.00 in0.0 mm 0.00 in0.0 mm
07:45 AM 72.1°F22.3°C 62.6°F17.0°C 72% 5.0 mph ENE8.0 kmh ENE 10.0 mph16.1 kmh 29.70 in1005.8 mb 0.00 in0.0 mm 0.00 in0.0 mm 0.00 in0.0 mm
07:50 AM 72.1°F22.3°C 63.1°F17.3°C 73% 4.0 mph ENE6.4 kmh ENE 10.0 mph16.1 kmh 29.70 in1005.8 mb 0.00 in0.0 mm 0.00 in0.0 mm 0.00 in0.0 mm
07:55 AM 72.7°F22.6°C 62.6°F17.0°C 71% 4.0 mph ENE6.4 kmh ENE 8.0 mph12.9 kmh 29.69 in1005.4 mb 0.00 in0.0 mm 0.00 in0.0 mm 0.00 in0.0 mm
08:00 AM 73.0°F22.8°C 62.8°F17.1°C 70% 3.0 mph E4.8 kmh E 9.0 mph14.5 kmh 29.69 in1005.4 mb 0.00 in0.0 mm 0.00 in0.0 mm 0.00 in0.0 mm
08:05 AM 72.9°F22.7°C 62.4°F16.9°C 70% 4.0 mph ENE6.4 kmh ENE 12.0 mph19.3 kmh 29.69 in1005.4 mb 0.00 in0.0 mm 0.00 in0.0 mm 0.00 in0.0 mm
08:10 AM 72.7°F22.6°C 62.4°F16.9°C 70% 6.0 mph ENE9.7 kmh ENE 12.0 mph19.3 kmh 29.69 in1005.4 mb 0.00 in0.0 mm 0.00 in0.0 mm 0.00 in0.0 mm
08:15 AM 72.9°F22.7°C 62.4°F16.9°C 70% 6.0 mph ENE9.7 kmh ENE 12.0 mph19.3 kmh 29.69 in1005.4 mb 0.00 in0.0 mm 0.00 in0.0 mm 0.00 in0.0 mm
08:20 AM 72.9°F22.7°C 62.6°F17.0°C 70% 6.0 mph ENE9.7 kmh ENE 16.0 mph25.7 kmh 29.69 in1005.4 mb 0.00 in0.0 mm 0.00 in0.0 mm 0.00 in0.0 mm
08:25 AM 72.9°F22.7°C 62.4°F16.9°C 70% 6.0 mph ENE9.7 kmh ENE 16.0 mph25.7 kmh 29.69 in1005.4 mb 0.00 in0.0 mm 0.00 in0.0 mm 0.00 in0.0 mm
08:30 AM 73.6°F23.1°C 63.5°F17.5°C 71% 5.0 mph ENE8.0 kmh ENE 16.0 mph25.7 kmh 29.69 in1005.4 mb 0.00 in0.0 mm 0.00 in0.0 mm 0.00 in0.0 mm
08:35 AM 73.9°F23.3°C 62.2°F16.8°C 67% 4.0 mph ENE6.4 kmh ENE 13.0 mph20.9 kmh 29.69 in1005.4 mb 0.00 in0.0 mm 0.00 in0.0 mm 0.00 in0.0 mm
08:40 AM 73.6°F23.1°C 62.2°F16.8°C 68% 6.0 mph ENE9.7 kmh ENE 13.0 mph20.9 kmh 29.69 in1005.4 mb 0.00 in0.0 mm 0.00 in0.0 mm 0.00 in0.0 mm
08:45 AM 73.4°F23.0°C 62.6°F17.0°C 69% 5.0 mph ENE8.0 kmh ENE 11.0 mph17.7 kmh 29.69 in1005.4 mb 0.00 in0.0 mm 0.00 in0.0 mm 0.00 in0.0 mm
08:50 AM 73.9°F23.3°C 62.6°F17.0°C 68% 5.0 mph ENE8.0 kmh ENE 11.0 mph17.7 kmh 29.69 in1005.4 mb 0.00 in0.0 mm 0.00 in0.0 mm 0.00 in0.0 mm
08:55 AM 73.9°F23.3°C 63.1°F17.3°C 69% 6.0 mph ENE9.7 kmh ENE 14.0 mph22.5 kmh 29.68 in1005.1 mb 0.00 in0.0 mm 0.00 in0.0 mm 0.00 in0.0 mm
09:00 AM 74.5°F23.6°C 63.1°F17.3°C 68% 6.0 mph ENE9.7 kmh ENE 15.0 mph24.1 kmh 29.69 in1005.4 mb 0.00 in0.0 mm 0.00 in0.0 mm 0.00 in0.0 mm
09:05 AM 74.7°F23.7°C 63.3°F17.4°C 68% 6.0 mph E9.7 kmh E 15.0 mph24.1 kmh 29.69 in1005.4 mb 0.00 in0.0 mm 0.00 in0.0 mm 0.00 in0.0 mm
09:10 AM 74.7°F23.7°C 63.3°F17.4°C 68% 6.0 mph ENE9.7 kmh ENE 12.0 mph19.3 kmh 29.68 in1005.1 mb 0.00 in0.0 mm 0.00 in0.0 mm 0.00 in0.0 mm
09:15 AM 75.4°F24.1°C 64.0°F17.8°C 68% 6.0 mph E9.7 kmh E 12.0 mph19.3 kmh 29.68 in1005.1 mb 0.00 in0.0 mm 0.00 in0.0 mm 0.00 in0.0 mm
09:20 AM 75.7°F24.3°C 63.7°F17.6°C 66% 4.0 mph ENE6.4 kmh ENE 10.0 mph16.1 kmh 29.68 in1005.1 mb 0.00 in0.0 mm 0.00 in0.0 mm 0.00 in0.0 mm
09:25 AM 75.2°F24.0°C 63.5°F17.5°C 67% 5.0 mph ENE8.0 kmh ENE 12.0 mph19.3 kmh 29.68 in1005.1 mb 0.00 in0.0 mm 0.00 in0.0 mm 0.00 in0.0 mm
09:30 AM 74.7°F23.7°C 63.5°F17.5°C 68% 7.0 mph ENE11.3 kmh ENE 12.0 mph19.3 kmh 29.68 in1005.1 mb 0.00 in0.0 mm 0.00 in0.0 mm 0.00 in0.0 mm
09:35 AM 74.8°F23.8°C 63.5°F17.5°C 68% 6.0 mph ENE9.7 kmh ENE 11.0 mph17.7 kmh 29.68 in1005.1 mb 0.00 in0.0 mm 0.00 in0.0 mm 0.00 in0.0 mm
09:40 AM 75.4°F24.1°C 63.5°F17.5°C 67% 5.0 mph ENE8.0 kmh ENE 11.0 mph17.7 kmh 29.68 in1005.1 mb 0.00 in0.0 mm 0.00 in0.0 mm 0.00 in0.0 mm
09:45 AM 75.6°F24.2°C 63.5°F17.5°C 66% 5.0 mph ENE8.0 kmh ENE 10.0 mph16.1 kmh 29.68 in1005.1 mb 0.00 in0.0 mm 0.00 in0.0 mm 0.00 in0.0 mm
09:50 AM 76.5°F24.7°C 63.3°F17.4°C 64% 4.0 mph E6.4 kmh E 10.0 mph16.1 kmh 29.67 in1004.7 mb 0.00 in0.0 mm 0.00 in0.0 mm 0.00 in0.0 mm
09:55 AM 77.2°F25.1°C 63.5°F17.5°C 63% 4.0 mph ENE6.4 kmh ENE 13.0 mph20.9 kmh 29.67 in1004.7 mb 0.00 in0.0 mm 0.00 in0.0 mm 0.00 in0.0 mm
10:00 AM 77.4°F25.2°C 63.9°F17.7°C 63% 5.0 mph ENE8.0 kmh ENE 13.0 mph20.9 kmh 29.68 in1005.1 mb 0.00 in0.0 mm 0.00 in0.0 mm 0.00 in0.0 mm
10:05 AM 77.7°F25.4°C 63.7°F17.6°C 62% 4.0 mph E6.4 kmh E 10.0 mph16.1 kmh 29.67 in1004.7 mb 0.00 in0.0 mm 0.00 in0.0 mm 0.00 in0.0 mm
10:10 AM 78.1°F25.6°C 63.5°F17.5°C 61% 5.0 mph E8.0 kmh E 10.0 mph16.1 kmh 29.68 in1005.1 mb 0.00 in0.0 mm 0.00 in0.0 mm 0.00 in0.0 mm
10:15 AM 78.4°F25.8°C 63.3°F17.4°C 60% 5.0 mph ENE8.0 kmh ENE 12.0 mph19.3 kmh 29.67 in1004.7 mb 0.00 in0.0 mm 0.00 in0.0 mm 0.00 in0.0 mm
10:20 AM 78.4°F25.8°C 63.9°F17.7°C 61% 5.0 mph ENE8.0 kmh ENE 14.0 mph22.5 kmh 29.67 in1004.7 mb 0.00 in0.0 mm 0.00 in0.0 mm 0.00 in0.0 mm
10:25 AM 78.4°F25.8°C 63.0°F17.2°C 59% 6.0 mph ENE9.7 kmh ENE 14.0 mph22.5 kmh 29.67 in1004.7 mb 0.00 in0.0 mm 0.00 in0.0 mm 0.00 in0.0 mm
10:30 AM 78.4°F25.8°C 63.0°F17.2°C 59% 6.0 mph ENE9.7 kmh ENE 12.0 mph19.3 kmh 29.67 in1004.7 mb 0.00 in0.0 mm 0.00 in0.0 mm 0.00 in0.0 mm
10:35 AM 78.1°F25.6°C 62.6°F17.0°C 59% 5.0 mph ENE8.0 kmh ENE 12.0 mph19.3 kmh 29.67 in1004.7 mb 0.00 in0.0 mm 0.00 in0.0 mm 0.00 in0.0 mm
10:40 AM 78.1°F25.6°C 62.1°F16.7°C 58% 5.0 mph ENE8.0 kmh ENE 12.0 mph19.3 kmh 29.67 in1004.7 mb 0.00 in0.0 mm 0.00 in0.0 mm 0.00 in0.0 mm
10:45 AM 78.3°F25.7°C 62.8°F17.1°C 59% 5.0 mph ENE8.0 kmh ENE 10.0 mph16.1 kmh 29.67 in1004.7 mb 0.00 in0.0 mm 0.00 in0.0 mm 0.00 in0.0 mm
10:50 AM 79.7°F26.5°C 63.7°F17.6°C 58% 5.0 mph ENE8.0 kmh ENE 11.0 mph17.7 kmh 29.66 in1004.4 mb 0.00 in0.0 mm 0.00 in0.0 mm 0.00 in0.0 mm
10:55 AM 80.2°F26.8°C 63.1°F17.3°C 56% 4.0 mph E6.4 kmh E 11.0 mph17.7 kmh 29.66 in1004.4 mb 0.00 in0.0 mm 0.00 in0.0 mm 0.00 in0.0 mm
11:00 AM 80.8°F27.1°C 63.0°F17.2°C 55% 3.0 mph E4.8 kmh E 10.0 mph16.1 kmh 29.66 in1004.4 mb 0.00 in0.0 mm 0.00 in0.0 mm 0.00 in0.0 mm
11:05 AM 80.8°F27.1°C 63.1°F17.3°C 55% 2.0 mph SSE3.2 kmh SSE 8.0 mph12.9 kmh 29.66 in1004.4 mb 0.00 in0.0 mm 0.00 in0.0 mm 0.00 in0.0 mm
11:10 AM 81.1°F27.3°C 64.0°F17.8°C 56% 2.0 mph E3.2 kmh E 7.0 mph11.3 kmh 29.65 in1004.1 mb 0.00 in0.0 mm 0.00 in0.0 mm 0.00 in0.0 mm
11:15 AM 81.3°F27.4°C 63.1°F17.3°C 54% 2.0 mph E3.2 kmh E 10.0 mph16.1 kmh 29.65 in1004.1 mb 0.00 in0.0 mm 0.00 in0.0 mm 0.00 in0.0 mm
11:20 AM 81.3°F27.4°C 63.1°F17.3°C 54% 2.0 mph E3.2 kmh E 10.0 mph16.1 kmh 29.65 in1004.1 mb 0.00 in0.0 mm 0.00 in0.0 mm 0.00 in0.0 mm
11:25 AM 81.5°F27.5°C 62.8°F17.1°C 53% 2.0 mph SE3.2 kmh SE 10.0 mph16.1 kmh 29.65 in1004.1 mb 0.00 in0.0 mm 0.00 in0.0 mm 0.00 in0.0 mm
11:30 AM 81.0°F27.2°C 62.8°F17.1°C 54% 4.0 mph E6.4 kmh E 10.0 mph16.1 kmh 29.65 in1004.1 mb 0.00 in0.0 mm 0.00 in0.0 mm 0.00 in0.0 mm
11:35 AM 81.0°F27.2°C 63.9°F17.7°C 56% 3.0 mph E4.8 kmh E 8.0 mph12.9 kmh 29.65 in1004.1 mb 0.00 in0.0 mm 0.00 in0.0 mm 0.00 in0.0 mm
11:40 AM 80.8°F27.1°C 64.2°F17.9°C 57% 2.0 mph ESE3.2 kmh ESE 7.0 mph11.3 kmh 29.65 in1004.1 mb 0.00 in0.0 mm 0.00 in0.0 mm 0.00 in0.0 mm
11:45 AM 79.3°F26.3°C 65.1°F18.4°C 62% 2.0 mph SSE3.2 kmh SSE 8.0 mph12.9 kmh 29.65 in1004.1 mb 0.00 in0.0 mm 0.00 in0.0 mm 0.00 in0.0 mm
11:50 AM 79.2°F26.2°C 66.0°F18.9°C 64% 2.0 mph SSW3.2 kmh SSW 8.0 mph12.9 kmh 29.65 in1004.1 mb 0.00 in0.0 mm 0.00 in0.0 mm 0.00 in0.0 mm
11:55 AM 78.4°F25.8°C 63.0°F17.2°C 59% 3.0 mph S4.8 kmh S 12.0 mph19.3 kmh 29.66 in1004.4 mb 0.00 in0.0 mm 0.00 in0.0 mm 0.00 in0.0 mm
12:00 PM 78.4°F25.8°C 62.1°F16.7°C 57% 4.0 mph SE6.4 kmh SE 12.0 mph19.3 kmh 29.65 in1004.1 mb 0.00 in0.0 mm 0.00 in0.0 mm 0.00 in0.0 mm
12:05 PM 77.2°F25.1°C 61.3°F16.3°C 58% 4.0 mph E6.4 kmh E 10.0 mph16.1 kmh 29.65 in1004.1 mb 0.00 in0.0 mm 0.00 in0.0 mm 0.00 in0.0 mm
12:10 PM 76.8°F24.9°C 62.4°F16.9°C 61% 4.0 mph E6.4 kmh E 12.0 mph19.3 kmh 29.66 in1004.4 mb 0.00 in0.0 mm 0.00 in0.0 mm 0.00 in0.0 mm
12:15 PM 74.8°F23.8°C 61.3°F16.3°C 63% 4.0 mph E6.4 kmh E 13.0 mph20.9 kmh 29.65 in1004.1 mb 0.00 in0.0 mm 0.00 in0.0 mm 0.00 in0.0 mm
12:20 PM 74.7°F23.7°C 61.2°F16.2°C 63% 4.0 mph E6.4 kmh E 13.0 mph20.9 kmh 29.65 in1004.1 mb 0.00 in0.0 mm 0.00 in0.0 mm 0.00 in0.0 mm
12:25 PM 75.6°F24.2°C 62.1°F16.7°C 63% 3.0 mph E4.8 kmh E 10.0 mph16.1 kmh 29.65 in1004.1 mb 0.00 in0.0 mm 0.00 in0.0 mm 0.00 in0.0 mm
12:30 PM 76.6°F24.8°C 62.6°F17.0°C 62% 3.0 mph E4.8 kmh E 10.0 mph16.1 kmh 29.65 in1004.1 mb 0.00 in0.0 mm 0.00 in0.0 mm 0.00 in0.0 mm
12:35 PM 77.0°F25.0°C 62.1°F16.7°C 60% 2.0 mph E3.2 kmh E 10.0 mph16.1 kmh 29.65 in1004.1 mb 0.00 in0.0 mm 0.00 in0.0 mm 0.00 in0.0 mm
12:40 PM 77.4°F25.2°C 63.7°F17.6°C 63% 2.0 mph ESE3.2 kmh ESE 8.0 mph12.9 kmh 29.65 in1004.1 mb 0.00 in0.0 mm 0.00 in0.0 mm 0.00 in0.0 mm
12:45 PM 76.6°F24.8°C 62.1°F16.7°C 61% 3.0 mph E4.8 kmh E 12.0 mph19.3 kmh 29.64 in1003.7 mb 0.00 in0.0 mm 0.00 in0.0 mm 0.00 in0.0 mm
12:50 PM 75.9°F24.4°C 61.5°F16.4°C 61% 4.0 mph E6.4 kmh E 12.0 mph19.3 kmh 29.64 in1003.7 mb 0.00 in0.0 mm 0.00 in0.0 mm 0.00 in0.0 mm
12:55 PM 75.9°F24.4°C 61.0°F16.1°C 60% 3.0 mph E4.8 kmh E 8.0 mph12.9 kmh 29.65 in1004.1 mb 0.00 in0.0 mm 0.00 in0.0 mm 0.00 in0.0 mm
01:00 PM 75.0°F23.9°C 61.7°F16.5°C 63% 2.0 mph E3.2 kmh E 6.0 mph9.7 kmh 29.65 in1004.1 mb 0.00 in0.0 mm 0.00 in0.0 mm 0.00 in0.0 mm
01:05 PM 74.5°F23.6°C 61.9°F16.6°C 65% 2.0 mph E3.2 kmh E 6.0 mph9.7 kmh 29.65 in1004.1 mb 0.00 in0.0 mm 0.00 in0.0 mm 0.00 in0.0 mm
01:10 PM 73.4°F23.0°C 62.6°F17.0°C 69% 3.0 mph E4.8 kmh E 7.0 mph11.3 kmh 29.64 in1003.7 mb 0.00 in0.0 mm 0.00 in0.0 mm 0.00 in0.0 mm
01:15 PM 72.1°F22.3°C 62.2°F16.8°C 71% 4.0 mph E6.4 kmh E 8.0 mph12.9 kmh 29.64 in1003.7 mb 0.00 in0.0 mm 0.00 in0.0 mm 0.00 in0.0 mm
01:20 PM 71.8°F22.1°C 61.9°F16.6°C 71% 4.0 mph ENE6.4 kmh ENE 8.0 mph12.9 kmh 29.64 in1003.7 mb 0.00 in0.0 mm 0.00 in0.0 mm 0.00 in0.0 mm
01:25 PM 71.4°F21.9°C 61.9°F16.6°C 72% 5.0 mph ENE8.0 kmh ENE 10.0 mph16.1 kmh 29.65 in1004.1 mb 0.00 in0.0 mm 0.00 in0.0 mm 0.00 in0.0 mm
01:30 PM 71.2°F21.8°C 62.2°F16.8°C 73% 5.0 mph ENE8.0 kmh ENE 12.0 mph19.3 kmh 29.65 in1004.1 mb 0.00 in0.0 mm 0.00 in0.0 mm 0.00 in0.0 mm
01:35 PM 71.1°F21.7°C 63.5°F17.5°C 77% 5.0 mph ENE8.0 kmh ENE 12.0 mph19.3 kmh 29.65 in1004.1 mb 0.00 in0.0 mm 0.00 in0.0 mm 0.00 in0.0 mm
01:40 PM 71.2°F21.8°C 64.0°F17.8°C 78% 4.0 mph ENE6.4 kmh ENE 10.0 mph16.1 kmh 29.65 in1004.1 mb 0.00 in0.0 mm 0.00 in0.0 mm 0.00 in0.0 mm
01:45 PM 71.6°F22.0°C 64.0°F17.8°C 77% 5.0 mph ENE8.0 kmh ENE 9.0 mph14.5 kmh 29.65 in1004.1 mb 0.00 in0.0 mm 0.00 in0.0 mm 0.00 in0.0 mm
01:50 PM 71.8°F22.1°C 63.9°F17.7°C 76% 4.0 mph E6.4 kmh E 9.0 mph14.5 kmh 29.65 in1004.1 mb 0.00 in0.0 mm 0.00 in0.0 mm 0.00 in0.0 mm
01:55 PM 72.1°F22.3°C 64.0°F17.8°C 76% 4.0 mph ENE6.4 kmh ENE 7.0 mph11.3 kmh 29.65 in1004.1 mb 0.00 in0.0 mm 0.00 in0.0 mm 0.00 in0.0 mm
02:00 PM 72.3°F22.4°C 63.5°F17.5°C 74% 4.0 mph ENE6.4 kmh ENE 7.0 mph11.3 kmh 29.65 in1004.1 mb 0.00 in0.0 mm 0.00 in0.0 mm 0.00 in0.0 mm
02:05 PM 72.3°F22.4°C 62.8°F17.1°C 72% 5.0 mph ENE8.0 kmh ENE 8.0 mph12.9 kmh 29.65 in1004.1 mb 0.00 in0.0 mm 0.00 in0.0 mm 0.00 in0.0 mm
02:10 PM 72.5°F22.5°C 63.0°F17.2°C 72% 4.0 mph ENE6.4 kmh ENE 8.0 mph12.9 kmh 29.64 in1003.7 mb 0.00 in0.0 mm 0.00 in0.0 mm 0.00 in0.0 mm
02:15 PM 72.7°F22.6°C 63.1°F17.3°C 72% 4.0 mph ENE6.4 kmh ENE 7.0 mph11.3 kmh 29.65 in1004.1 mb 0.00 in0.0 mm 0.00 in0.0 mm 0.00 in0.0 mm
02:20 PM 72.3°F22.4°C 62.8°F17.1°C 72% 3.0 mph E4.8 kmh E 7.0 mph11.3 kmh 29.64 in1003.7 mb 0.00 in0.0 mm 0.00 in0.0 mm 0.00 in0.0 mm
02:25 PM 72.1°F22.3°C 63.0°F17.2°C 73% 3.0 mph ENE4.8 kmh ENE 7.0 mph11.3 kmh 29.64 in1003.7 mb 0.00 in0.0 mm 0.00 in0.0 mm 0.00 in0.0 mm
02:30 PM 72.0°F22.2°C 63.1°F17.3°C 74% 2.0 mph ENE3.2 kmh ENE 6.0 mph9.7 kmh 29.65 in1004.1 mb 0.02 in0.5 mm 0.24 in6.1 mm 0.02 in0.5 mm
02:35 PM 71.6°F22.0°C 64.0°F17.8°C 77% Calm Calm 3.0 mph4.8 kmh 29.65 in1004.1 mb 0.02 in0.5 mm 0.00 in0.0 mm 0.02 in0.5 mm
02:40 PM 70.2°F21.2°C 64.0°F17.8°C 81% 1.0 mph SW1.6 kmh SW 9.0 mph14.5 kmh 29.66 in1004.4 mb 0.03 in0.8 mm 0.12 in3.0 mm 0.03 in0.8 mm
02:45 PM 69.1°F20.6°C 64.6°F18.1°C 86% 4.0 mph SW6.4 kmh SW 9.0 mph14.5 kmh 29.67 in1004.7 mb 0.06 in1.5 mm 0.36 in9.1 mm 0.06 in1.5 mm
02:50 PM 67.8°F19.9°C 63.9°F17.7°C 87% 5.0 mph SW8.0 kmh SW 12.0 mph19.3 kmh 29.67 in1004.7 mb 0.08 in2.0 mm 0.24 in6.1 mm 0.08 in2.0 mm
02:55 PM 66.6°F19.2°C 62.2°F16.8°C 86% 4.0 mph SW6.4 kmh SW 12.0 mph19.3 kmh 29.67 in1004.7 mb 0.12 in3.0 mm 0.48 in12.2 mm 0.12 in3.0 mm
03:00 PM 65.7°F18.7°C 61.7°F16.5°C 87% 3.0 mph SW4.8 kmh SW 9.0 mph14.5 kmh 29.67 in1004.7 mb 0.14 in3.6 mm 0.02 in0.5 mm 0.14 in3.6 mm
03:05 PM 64.9°F18.3°C 61.3°F16.3°C 88% 2.0 mph SW3.2 kmh SW 5.0 mph8.0 kmh 29.67 in1004.7 mb 0.16 in4.1 mm 0.24 in6.1 mm 0.16 in4.1 mm
03:10 PM 64.8°F18.2°C 61.3°F16.3°C 89% 2.0 mph SW3.2 kmh SW 5.0 mph8.0 kmh 29.67 in1004.7 mb 0.17 in4.3 mm 0.12 in3.0 mm 0.17 in4.3 mm
03:15 PM 64.6°F18.1°C 61.5°F16.4°C 90% 1.0 mph SW1.6 kmh SW 5.0 mph8.0 kmh 29.67 in1004.7 mb 0.19 in4.8 mm 0.24 in6.1 mm 0.19 in4.8 mm
03:20 PM 64.9°F18.3°C 62.2°F16.8°C 91% Calm Calm 3.0 mph4.8 kmh 29.67 in1004.7 mb 0.20 in5.1 mm 0.12 in3.0 mm 0.20 in5.1 mm
03:25 PM 65.1°F18.4°C 62.8°F17.1°C 92% Calm Calm 2.0 mph3.2 kmh 29.67 in1004.7 mb 0.23 in5.8 mm 0.36 in9.1 mm 0.23 in5.8 mm
03:30 PM 65.1°F18.4°C 62.8°F17.1°C 92% Calm Calm 1.0 mph1.6 kmh 29.67 in1004.7 mb 0.22 in5.6 mm 0.00 in0.0 mm 0.24 in6.1 mm
03:35 PM 65.5°F18.6°C 63.3°F17.4°C 93% Calm Calm 2.0 mph3.2 kmh 29.66 in1004.4 mb 0.23 in5.8 mm 0.12 in3.0 mm 0.25 in6.4 mm
03:40 PM 65.7°F18.7°C 63.5°F17.5°C 93% Calm Calm 2.0 mph3.2 kmh 29.67 in1004.7 mb 0.23 in5.8 mm 0.00 in0.0 mm 0.27 in6.9 mm
03:45 PM 65.8°F18.8°C 63.9°F17.7°C 93% Calm Calm 2.0 mph3.2 kmh 29.67 in1004.7 mb 0.22 in5.6 mm 0.00 in0.0 mm 0.28 in7.1 mm
03:50 PM 65.8°F18.8°C 64.0°F17.8°C 94% Calm Calm 2.0 mph3.2 kmh 29.66 in1004.4 mb 0.31 in7.9 mm 1.08 in27.4 mm 0.39 in9.9 mm
03:55 PM 65.8°F18.8°C 64.0°F17.8°C 94% 1.0 mph E1.6 kmh E 5.0 mph8.0 kmh 29.65 in1004.1 mb 0.31 in7.9 mm 0.00 in0.0 mm 0.43 in10.9 mm
04:00 PM 66.0°F18.9°C 64.2°F17.9°C 94% 3.0 mph ENE4.8 kmh ENE 9.0 mph14.5 kmh 29.64 in1003.7 mb 0.35 in8.9 mm 0.04 in1.0 mm 0.50 in12.7 mm
04:05 PM 66.0°F18.9°C 64.4°F18.0°C 94% 5.0 mph ENE8.0 kmh ENE 9.0 mph14.5 kmh 29.64 in1003.7 mb 0.35 in8.9 mm 0.00 in0.0 mm 0.50 in12.7 mm
04:10 PM 66.2°F19.0°C 64.4°F18.0°C 94% 5.0 mph E8.0 kmh E 9.0 mph14.5 kmh 29.64 in1003.7 mb 0.34 in8.6 mm 0.00 in0.0 mm 0.51 in13.0 mm
04:15 PM 66.2°F19.0°C 64.4°F18.0°C 94% 4.0 mph E6.4 kmh E 9.0 mph14.5 kmh 29.64 in1003.7 mb 0.33 in8.4 mm 0.00 in0.0 mm 0.52 in13.2 mm
04:20 PM 66.0°F18.9°C 63.9°F17.7°C 93% 4.0 mph E6.4 kmh E 14.0 mph22.5 kmh 29.63 in1003.4 mb 0.31 in7.9 mm 0.00 in0.0 mm 0.53 in13.5 mm
04:25 PM 65.8°F18.8°C 63.5°F17.5°C 92% 5.0 mph E8.0 kmh E 14.0 mph22.5 kmh 29.63 in1003.4 mb 0.30 in7.6 mm 0.00 in0.0 mm 0.53 in13.5 mm
04:30 PM 65.7°F18.7°C 62.2°F16.8°C 89% 4.0 mph E6.4 kmh E 8.0 mph12.9 kmh 29.63 in1003.4 mb 0.29 in7.4 mm 0.00 in0.0 mm 0.53 in13.5 mm
04:35 PM 65.7°F18.7°C 62.2°F16.8°C 89% 3.0 mph E4.8 kmh E 7.0 mph11.3 kmh 29.63 in1003.4 mb 0.28 in7.1 mm 0.00 in0.0 mm 0.53 in13.5 mm
04:40 PM 65.7°F18.7°C 62.6°F17.0°C 90% 1.0 mph E1.6 kmh E 5.0 mph8.0 kmh 29.64 in1003.7 mb 0.26 in6.6 mm 0.00 in0.0 mm 0.53 in13.5 mm
04:45 PM 66.0°F18.9°C 63.3°F17.4°C 91% 1.0 mph SSW1.6 kmh SSW 5.0 mph8.0 kmh 29.64 in1003.7 mb 0.24 in6.1 mm 0.00 in0.0 mm 0.53 in13.5 mm
04:50 PM 66.4°F19.1°C 63.9°F17.7°C 92% 1.0 mph SSW1.6 kmh SSW 5.0 mph8.0 kmh 29.63 in1003.4 mb 0.15 in3.8 mm 0.00 in0.0 mm 0.54 in13.7 mm
04:55 PM 66.6°F19.2°C 64.0°F17.8°C 92% Calm Calm 4.0 mph6.4 kmh 29.63 in1003.4 mb 0.10 in2.5 mm 0.00 in0.0 mm 0.54 in13.7 mm
05:00 PM 66.7°F19.3°C 64.6°F18.1°C 93% 1.0 mph ENE1.6 kmh ENE 4.0 mph6.4 kmh 29.63 in1003.4 mb 0.04 in1.0 mm 0.00 in0.0 mm 0.54 in13.7 mm
05:05 PM 66.7°F19.3°C 64.8°F18.2°C 93% 1.0 mph ENE1.6 kmh ENE 4.0 mph6.4 kmh 29.63 in1003.4 mb 0.03 in0.8 mm 0.00 in0.0 mm 0.54 in13.7 mm
05:10 PM 66.7°F19.3°C 64.4°F18.0°C 92% Calm Calm 2.0 mph3.2 kmh 29.63 in1003.4 mb 0.02 in0.5 mm 0.00 in0.0 mm 0.54 in13.7 mm
05:15 PM 66.7°F19.3°C 64.2°F17.9°C 92% Calm Calm 2.0 mph3.2 kmh 29.63 in1003.4 mb 0.02 in0.5 mm 0.00 in0.0 mm 0.54 in13.7 mm
05:20 PM 67.3°F19.6°C 64.8°F18.2°C 92% Calm Calm 2.0 mph3.2 kmh 29.62 in1003.0 mb 0.01 in0.3 mm 0.00 in0.0 mm 0.54 in13.7 mm
05:25 PM 67.6°F19.8°C 65.1°F18.4°C 92% Calm Calm 1.0 mph1.6 kmh 29.63 in1003.4 mb 0.01 in0.3 mm 0.00 in0.0 mm 0.54 in13.7 mm
05:30 PM 67.8°F19.9°C 65.5°F18.6°C 92% Calm Calm 1.0 mph1.6 kmh 29.63 in1003.4 mb 0.01 in0.3 mm 0.00 in0.0 mm 0.54 in13.7 mm
05:35 PM 68.2°F20.1°C 65.8°F18.8°C 92% Calm Calm 1.0 mph1.6 kmh 29.63 in1003.4 mb 0.01 in0.3 mm 0.00 in0.0 mm 0.54 in13.7 mm
05:40 PM 68.5°F20.3°C 66.2°F19.0°C 92% Calm Calm 1.0 mph1.6 kmh 29.62 in1003.0 mb 0.01 in0.3 mm 0.00 in0.0 mm 0.54 in13.7 mm
05:45 PM 69.1°F20.6°C 66.6°F19.2°C 92% Calm Calm 1.0 mph1.6 kmh 29.62 in1003.0 mb 0.01 in0.3 mm 0.00 in0.0 mm 0.54 in13.7 mm
05:50 PM 69.3°F20.7°C 66.4°F19.1°C 91% Calm Calm 3.0 mph4.8 kmh 29.62 in1003.0 mb 0.00 in0.0 mm 0.00 in0.0 mm 0.54 in13.7 mm
05:55 PM 69.6°F20.9°C 66.6°F19.2°C 90% Calm Calm 3.0 mph4.8 kmh 29.62 in1003.0 mb 0.00 in0.0 mm 0.00 in0.0 mm 0.54 in13.7 mm
06:00 PM 69.6°F20.9°C 66.2°F19.0°C 89% Calm Calm 5.0 mph8.0 kmh 29.61 in1002.7 mb 0.00 in0.0 mm 0.00 in0.0 mm 0.54 in13.7 mm
06:05 PM 69.6°F20.9°C 66.6°F19.2°C 90% Calm Calm 5.0 mph8.0 kmh 29.61 in1002.7 mb 0.00 in0.0 mm 0.00 in0.0 mm 0.54 in13.7 mm
06:10 PM 69.4°F20.8°C 66.0°F18.9°C 89% Calm Calm 2.0 mph3.2 kmh 29.61 in1002.7 mb 0.00 in0.0 mm 0.00 in0.0 mm 0.54 in13.7 mm
06:15 PM 69.3°F20.7°C 65.8°F18.8°C 89% Calm Calm 2.0 mph3.2 kmh 29.62 in1003.0 mb 0.00 in0.0 mm 0.00 in0.0 mm 0.54 in13.7 mm
06:20 PM 69.4°F20.8°C 66.0°F18.9°C 89% Calm Calm 1.0 mph1.6 kmh 29.62 in1003.0 mb 0.00 in0.0 mm 0.00 in0.0 mm 0.54 in13.7 mm
06:25 PM 69.4°F20.8°C 66.0°F18.9°C 89% Calm Calm 1.0 mph1.6 kmh 29.62 in1003.0 mb 0.00 in0.0 mm 0.00 in0.0 mm 0.54 in13.7 mm
06:30 PM 69.4°F20.8°C 66.4°F19.1°C 90% Calm Calm -- 29.62 in1003.0 mb 0.00 in0.0 mm 0.00 in0.0 mm 0.54 in13.7 mm
06:35 PM 69.1°F20.6°C 65.7°F18.7°C 89% Calm Calm 1.0 mph1.6 kmh 29.62 in1003.0 mb 0.00 in0.0 mm 0.00 in0.0 mm 0.54 in13.7 mm
06:40 PM 68.7°F20.4°C 65.3°F18.5°C 89% Calm Calm 1.0 mph1.6 kmh 29.62 in1003.0 mb 0.00 in0.0 mm 0.00 in0.0 mm 0.54 in13.7 mm
06:45 PM 68.5°F20.3°C 65.5°F18.6°C 90% Calm Calm 1.0 mph1.6 kmh 29.62 in1003.0 mb 0.00 in0.0 mm 0.00 in0.0 mm 0.54 in13.7 mm
06:50 PM 68.5°F20.3°C 65.5°F18.6°C 90% Calm Calm -- 29.62 in1003.0 mb 0.00 in0.0 mm 0.00 in0.0 mm 0.54 in13.7 mm
06:55 PM 68.4°F20.2°C 65.7°F18.7°C 91% Calm Calm 2.0 mph3.2 kmh 29.62 in1003.0 mb 0.00 in0.0 mm 0.00 in0.0 mm 0.54 in13.7 mm
07:00 PM 68.2°F20.1°C 65.3°F18.5°C 91% Calm Calm 3.0 mph4.8 kmh 29.62 in1003.0 mb 0.00 in0.0 mm 0.00 in0.0 mm 0.54 in13.7 mm
07:05 PM 67.8°F19.9°C 65.1°F18.4°C 91% 1.0 mph ENE1.6 kmh ENE 3.0 mph4.8 kmh 29.62 in1003.0 mb 0.00 in0.0 mm 0.00 in0.0 mm 0.54 in13.7 mm
07:10 PM 68.2°F20.1°C 65.3°F18.5°C 91% Calm Calm 1.0 mph1.6 kmh 29.63 in1003.4 mb 0.00 in0.0 mm 0.00 in0.0 mm 0.54 in13.7 mm
07:15 PM 67.6°F19.8°C 64.9°F18.3°C 91% Calm Calm 1.0 mph1.6 kmh 29.63 in1003.4 mb 0.00 in0.0 mm 0.00 in0.0 mm 0.54 in13.7 mm
07:20 PM 67.5°F19.7°C 64.8°F18.2°C 91% Calm Calm 2.0 mph3.2 kmh 29.63 in1003.4 mb 0.00 in0.0 mm 0.00 in0.0 mm 0.54 in13.7 mm
07:25 PM 67.5°F19.7°C 64.9°F18.3°C 92% Calm Calm 2.0 mph3.2 kmh 29.63 in1003.4 mb 0.00 in0.0 mm 0.00 in0.0 mm 0.54 in13.7 mm
07:30 PM 67.3°F19.6°C 64.9°F18.3°C 92% Calm Calm 3.0 mph4.8 kmh 29.63 in1003.4 mb 0.00 in0.0 mm 0.00 in0.0 mm 0.54 in13.7 mm
07:35 PM 67.3°F19.6°C 65.1°F18.4°C 93% 1.0 mph NE1.6 kmh NE 3.0 mph4.8 kmh 29.63 in1003.4 mb 0.00 in0.0 mm 0.00 in0.0 mm 0.54 in13.7 mm
07:40 PM 67.1°F19.5°C 64.9°F18.3°C 93% Calm Calm 2.0 mph3.2 kmh 29.63 in1003.4 mb 0.00 in0.0 mm 0.00 in0.0 mm 0.54 in13.7 mm
07:45 PM 66.9°F19.4°C 64.9°F18.3°C 93% Calm Calm 2.0 mph3.2 kmh 29.64 in1003.7 mb 0.00 in0.0 mm 0.00 in0.0 mm 0.54 in13.7 mm
07:50 PM 66.9°F19.4°C 64.9°F18.3°C 93% Calm Calm 5.0 mph8.0 kmh 29.64 in1003.7 mb 0.00 in0.0 mm 0.00 in0.0 mm 0.54 in13.7 mm
07:55 PM 67.1°F19.5°C 64.9°F18.3°C 93% 1.0 mph ENE1.6 kmh ENE 5.0 mph8.0 kmh 29.64 in1003.7 mb 0.00 in0.0 mm 0.00 in0.0 mm 0.54 in13.7 mm
08:00 PM 66.9°F19.4°C 64.9°F18.3°C 93% 1.0 mph ENE1.6 kmh ENE 3.0 mph4.8 kmh 29.64 in1003.7 mb 0.00 in0.0 mm 0.00 in0.0 mm 0.54 in13.7 mm
08:05 PM 66.9°F19.4°C 64.8°F18.2°C 93% Calm Calm 3.0 mph4.8 kmh 29.64 in1003.7 mb 0.00 in0.0 mm 0.00 in0.0 mm 0.54 in13.7 mm
08:10 PM 66.7°F19.3°C 64.8°F18.2°C 93% Calm Calm 1.0 mph1.6 kmh 29.64 in1003.7 mb 0.00 in0.0 mm 0.00 in0.0 mm 0.54 in13.7 mm
08:15 PM 66.6°F19.2°C 64.6°F18.1°C 93% 1.0 mph ENE1.6 kmh ENE 3.0 mph4.8 kmh 29.65 in1004.1 mb 0.00 in0.0 mm 0.00 in0.0 mm 0.54 in13.7 mm
08:20 PM 66.6°F19.2°C 64.4°F18.0°C 93% 1.0 mph ENE1.6 kmh ENE 3.0 mph4.8 kmh 29.65 in1004.1 mb 0.00 in0.0 mm 0.00 in0.0 mm 0.54 in13.7 mm
08:25 PM 66.6°F19.2°C 64.4°F18.0°C 93% Calm Calm 3.0 mph4.8 kmh 29.65 in1004.1 mb 0.00 in0.0 mm 0.00 in0.0 mm 0.54 in13.7 mm
08:30 PM 66.6°F19.2°C 64.6°F18.1°C 93% 1.0 mph ENE1.6 kmh ENE 3.0 mph4.8 kmh 29.65 in1004.1 mb 0.00 in0.0 mm 0.00 in0.0 mm 0.54 in13.7 mm
08:35 PM 66.6°F19.2°C 64.4°F18.0°C 93% Calm Calm 2.0 mph3.2 kmh 29.65 in1004.1 mb 0.00 in0.0 mm 0.00 in0.0 mm 0.54 in13.7 mm
08:40 PM 66.4°F19.1°C 64.4°F18.0°C 93% Calm Calm 2.0 mph3.2 kmh 29.65 in1004.1 mb 0.00 in0.0 mm 0.00 in0.0 mm 0.54 in13.7 mm
08:45 PM 66.2°F19.0°C 64.0°F17.8°C 93% Calm Calm 1.0 mph1.6 kmh 29.65 in1004.1 mb 0.00 in0.0 mm 0.00 in0.0 mm 0.54 in13.7 mm
08:50 PM 66.0°F18.9°C 64.0°F17.8°C 93% Calm Calm -- 29.65 in1004.1 mb 0.00 in0.0 mm 0.00 in0.0 mm 0.54 in13.7 mm
08:55 PM 66.0°F18.9°C 63.9°F17.7°C 93% Calm Calm 1.0 mph1.6 kmh 29.65 in1004.1 mb 0.00 in0.0 mm 0.00 in0.0 mm 0.54 in13.7 mm
09:00 PM 66.0°F18.9°C 64.2°F17.9°C 94% Calm Calm 2.0 mph3.2 kmh 29.65 in1004.1 mb 0.00 in0.0 mm 0.00 in0.0 mm 0.54 in13.7 mm
09:05 PM 66.0°F18.9°C 64.2°F17.9°C 94% Calm Calm 2.0 mph3.2 kmh 29.65 in1004.1 mb 0.00 in0.0 mm 0.00 in0.0 mm 0.54 in13.7 mm
09:10 PM 66.0°F18.9°C 63.9°F17.7°C 93% Calm Calm 2.0 mph3.2 kmh 29.65 in1004.1 mb 0.00 in0.0 mm 0.00 in0.0 mm 0.54 in13.7 mm
09:15 PM 66.0°F18.9°C 63.9°F17.7°C 93% Calm Calm 2.0 mph3.2 kmh 29.65 in1004.1 mb 0.00 in0.0 mm 0.00 in0.0 mm 0.54 in13.7 mm
09:20 PM 66.0°F18.9°C 63.9°F17.7°C 93% Calm Calm 2.0 mph3.2 kmh 29.65 in1004.1 mb 0.00 in0.0 mm 0.00 in0.0 mm 0.54 in13.7 mm
09:25 PM 65.8°F18.8°C 64.0°F17.8°C 94% Calm Calm 2.0 mph3.2 kmh 29.65 in1004.1 mb 0.00 in0.0 mm 0.00 in0.0 mm 0.54 in13.7 mm
09:30 PM 65.8°F18.8°C 64.0°F17.8°C 94% Calm Calm 2.0 mph3.2 kmh 29.65 in1004.1 mb 0.00 in0.0 mm 0.00 in0.0 mm 0.54 in13.7 mm
09:35 PM 65.8°F18.8°C 64.0°F17.8°C 94% Calm Calm 2.0 mph3.2 kmh 29.65 in1004.1 mb 0.00 in0.0 mm 0.00 in0.0 mm 0.54 in13.7 mm
09:40 PM 65.8°F18.8°C 64.0°F17.8°C 94% Calm Calm 2.0 mph3.2 kmh 29.65 in1004.1 mb 0.00 in0.0 mm 0.00 in0.0 mm 0.54 in13.7 mm
09:45 PM 65.8°F18.8°C 64.0°F17.8°C 94% Calm Calm 1.0 mph1.6 kmh 29.64 in1003.7 mb 0.00 in0.0 mm 0.00 in0.0 mm 0.54 in13.7 mm
09:50 PM 65.8°F18.8°C 64.0°F17.8°C 94% Calm Calm 1.0 mph1.6 kmh 29.64 in1003.7 mb 0.00 in0.0 mm 0.00 in0.0 mm 0.54 in13.7 mm
09:55 PM 65.7°F18.7°C 63.9°F17.7°C 94% Calm Calm 1.0 mph1.6 kmh 29.64 in1003.7 mb 0.00 in0.0 mm 0.00 in0.0 mm 0.54 in13.7 mm
10:00 PM 65.3°F18.5°C 63.5°F17.5°C 94% Calm Calm -- 29.64 in1003.7 mb 0.00 in0.0 mm 0.00 in0.0 mm 0.54 in13.7 mm
10:05 PM 65.1°F18.4°C 63.5°F17.5°C 94% Calm Calm -- 29.64 in1003.7 mb 0.00 in0.0 mm 0.00 in0.0 mm 0.54 in13.7 mm
10:10 PM 64.8°F18.2°C 63.0°F17.2°C 94% Calm Calm -- 29.64 in1003.7 mb 0.00 in0.0 mm 0.00 in0.0 mm 0.54 in13.7 mm
10:15 PM 64.8°F18.2°C 63.0°F17.2°C 94% Calm Calm -- 29.64 in1003.7 mb 0.00 in0.0 mm 0.00 in0.0 mm 0.54 in13.7 mm
10:20 PM 64.6°F18.1°C 62.8°F17.1°C 94% Calm Calm -- 29.64 in1003.7 mb 0.00 in0.0 mm 0.00 in0.0 mm 0.54 in13.7 mm
10:25 PM 64.4°F18.0°C 62.6°F17.0°C 94% Calm Calm -- 29.64 in1003.7 mb 0.00 in0.0 mm 0.00 in0.0 mm 0.54 in13.7 mm
10:30 PM 64.2°F17.9°C 62.8°F17.1°C 95% Calm Calm 1.0 mph1.6 kmh 29.64 in1003.7 mb 0.00 in0.0 mm 0.00 in0.0 mm 0.54 in13.7 mm
10:35 PM 64.0°F17.8°C 62.6°F17.0°C 95% Calm Calm 1.0 mph1.6 kmh 29.64 in1003.7 mb 0.00 in0.0 mm 0.00 in0.0 mm 0.54 in13.7 mm
10:40 PM 63.9°F17.7°C 62.4°F16.9°C 95% Calm Calm 3.0 mph4.8 kmh 29.64 in1003.7 mb 0.00 in0.0 mm 0.00 in0.0 mm 0.54 in13.7 mm
10:45 PM 63.9°F17.7°C 62.4°F16.9°C 95% 1.0 mph NE1.6 kmh NE 3.0 mph4.8 kmh 29.64 in1003.7 mb 0.00 in0.0 mm 0.00 in0.0 mm 0.54 in13.7 mm
10:50 PM 63.9°F17.7°C 62.4°F16.9°C 95% Calm Calm 2.0 mph3.2 kmh 29.63 in1003.4 mb 0.00 in0.0 mm 0.00 in0.0 mm 0.54 in13.7 mm
10:55 PM 63.9°F17.7°C 62.4°F16.9°C 95% Calm Calm 1.0 mph1.6 kmh 29.63 in1003.4 mb 0.00 in0.0 mm 0.00 in0.0 mm 0.54 in13.7 mm
11:00 PM 63.9°F17.7°C 62.4°F16.9°C 95% Calm Calm 1.0 mph1.6 kmh 29.63 in1003.4 mb 0.00 in0.0 mm 0.00 in0.0 mm 0.37 in9.4 mm
11:05 PM 63.9°F17.7°C 62.4°F16.9°C 95% Calm Calm 1.0 mph1.6 kmh 29.62 in1003.0 mb 0.00 in0.0 mm 0.00 in0.0 mm 0.37 in9.4 mm
11:10 PM 63.9°F17.7°C 62.4°F16.9°C 95% Calm Calm 1.0 mph1.6 kmh 29.62 in1003.0 mb 0.00 in0.0 mm 0.00 in0.0 mm 0.37 in9.4 mm
11:15 PM 63.9°F17.7°C 62.4°F16.9°C 95% Calm Calm 1.0 mph1.6 kmh 29.62 in1003.0 mb 0.00 in0.0 mm 0.00 in0.0 mm 0.37 in9.4 mm
11:20 PM 63.9°F17.7°C 62.6°F17.0°C 96% Calm Calm 1.0 mph1.6 kmh 29.62 in1003.0 mb 0.00 in0.0 mm 0.00 in0.0 mm 0.37 in9.4 mm
11:25 PM 63.7°F17.6°C 62.4°F16.9°C 96% Calm Calm -- 29.62 in1003.0 mb 0.00 in0.0 mm 0.00 in0.0 mm 0.37 in9.4 mm
11:30 PM 63.3°F17.4°C 61.9°F16.6°C 95% Calm Calm -- 29.62 in1003.0 mb 0.00 in0.0 mm 0.00 in0.0 mm 0.37 in9.4 mm
11:35 PM 63.3°F17.4°C 62.2°F16.8°C 96% Calm Calm -- 29.62 in1003.0 mb 0.00 in0.0 mm 0.00 in0.0 mm 0.37 in9.4 mm
11:40 PM 63.3°F17.4°C 62.1°F16.7°C 96% Calm Calm -- 29.62 in1003.0 mb 0.00 in0.0 mm 0.00 in0.0 mm 0.37 in9.4 mm
11:45 PM 63.3°F17.4°C 62.1°F16.7°C 96% Calm Calm -- 29.62 in1003.0 mb 0.00 in0.0 mm 0.00 in0.0 mm 0.37 in9.4 mm
11:50 PM 63.3°F17.4°C 62.1°F16.7°C 96% Calm Calm -- 29.62 in1003.0 mb 0.00 in0.0 mm 0.00 in0.0 mm 0.37 in9.4 mm
11:55 PM 63.3°F17.4°C 62.1°F16.7°C 96% Calm Calm 1.0 mph1.6 kmh 29.62 in1003.0 mb 0.00 in0.0 mm 0.00 in0.0 mm 0.37 in9.4 mm